Zodiac — WTH5653 — position and weather

sailwx.info

Track history (hours):
 
Tides and Currents Weather Stations Pressure Air Temp Water Temp Dewpoint Dewpoint Depression Visibility Wind Speed Wind Dir Waves Ship Positions

Zodiac

Ship's website: http://www.schoonerzodiac.com/

Owner: VESSEL ZODIAC CORP, Bellingham, WA. More information available from US FCC via Universal Licensing System and Coast Guard Vessel Documentation Center.

Last reported at 2020-Aug-07 10:00 UTC. Time now 2020-Aug-07 10:13 UTC.
Position N 48°43' W 122°31'.

Length 34 m.

Type: Sailing vessel. MMSI: 366968070.

Date/timePositionNaut miles runAvg speedWind from/ knotsBaromVisibWave heightAir tempDewpointWater temp
2020-Aug-07 10:00N 48°43' W 122°31'0 0.0
2020-Aug-07 06:30N 48°43' W 122°31'0 0.0
2020-Aug-07 05:00N 48°43' W 122°31'0 0.0
2020-Aug-07 04:30N 48°43' W 122°31'0 0.0
2020-Aug-07 04:00N 48°43' W 122°31'0 0.0
2020-Aug-07 03:30N 48°43' W 122°31'0 0.0
2020-Aug-07 01:00N 48°43' W 122°31'0 0.0
2020-Aug-06 23:30N 48°43' W 122°31'0 0.0
2020-Aug-06 21:30N 48°43' W 122°31'0 0.0
2020-Aug-06 20:00N 48°43' W 122°31'0 0.0
2020-Aug-06 16:00N 48°43' W 122°31'0 0.0
2020-Aug-06 13:30N 48°43' W 122°31'0 0.0
2020-Aug-06 06:00N 48°43' W 122°31'0 0.0
2020-Aug-06 05:30N 48°43' W 122°31'0 0.0
2020-Aug-06 04:30N 48°43' W 122°31'0 0.0
2020-Aug-06 04:00N 48°43' W 122°31'0 0.0
2020-Aug-06 02:00N 48°43' W 122°31'0 0.0
2020-Aug-06 01:29N 48°43' W 122°31'0 0.0
2020-Aug-05 22:30N 48°43' W 122°31'0 0.0
2020-Aug-05 20:00N 48°43' W 122°31'0 0.0
2020-Aug-05 19:30N 48°43' W 122°31'0 0.0
2020-Aug-05 17:30N 48°43' W 122°31'0 0.0
2020-Aug-05 14:00N 48°43' W 122°31'0 0.0
2020-Aug-05 13:00N 48°43' W 122°31'0 0.0
2020-Aug-05 12:30N 48°43' W 122°31'0 0.0
2020-Aug-05 09:30N 48°43' W 122°31'0 0.0
2020-Aug-05 06:30N 48°43' W 122°31'0 0.0
2020-Aug-05 04:30N 48°43' W 122°31'0 0.0
2020-Aug-05 00:30N 48°43' W 122°31'0 0.0
2020-Aug-04 22:30N 48°43' W 122°31'0 0.0
2020-Aug-04 21:00N 48°43' W 122°31'0 0.0
2020-Aug-04 20:00N 48°43' W 122°31'0 0.0
2020-Aug-04 17:00N 48°43' W 122°31'0 0.0
2020-Aug-04 11:00N 48°43' W 122°31'0 0.0
2020-Aug-04 09:30N 48°43' W 122°31'0 0.0
2020-Aug-04 09:00N 48°43' W 122°31'0 0.0
2020-Aug-04 08:30N 48°43' W 122°31'0 0.0
2020-Aug-04 05:00N 48°43' W 122°31'0 0.0
2020-Aug-04 04:00N 48°43' W 122°31'0 0.0
2020-Aug-04 03:00N 48°43' W 122°31'0 0.0
2020-Aug-03 22:30N 48°43' W 122°31'12 2.5
2020-Aug-03 17:30N 48°36' W 122°45'4 4.2
2020-Aug-03 16:30N 48°33' W 122°50'1 0.8
2020-Aug-03 15:30N 48°32' W 122°51'0 0.0
2020-Aug-03 13:00N 48°33' W 122°51'0 0.0
2020-Aug-03 11:00N 48°33' W 122°51'0 0.0
2020-Aug-03 10:00N 48°33' W 122°51'0 0.0
2020-Aug-03 09:30N 48°33' W 122°51'0 0.0
2020-Aug-03 09:00N 48°33' W 122°51'0 0.0
2020-Aug-03 07:00N 48°33' W 122°51'0 0.0
2020-Aug-03 05:30N 48°33' W 122°51'0 0.0
2020-Aug-03 04:30N 48°33' W 122°51'0 0.0
2020-Aug-03 03:30N 48°33' W 122°51'0 0.0
2020-Aug-03 00:00N 48°33' W 122°51'8 1.3
2020-Aug-02 17:30N 48°36' W 123°03'9 8.8
2020-Aug-02 16:30N 48°44' W 122°56'3 0.8
2020-Aug-02 13:30N 48°46' W 122°54'0 0.0
2020-Aug-02 13:00N 48°46' W 122°54'0 0.1
2020-Aug-02 12:30N 48°46' W 122°54'0 0.0
2020-Aug-02 10:30N 48°46' W 122°54'0 0.1
2020-Aug-02 10:00N 48°46' W 122°54'0 0.0
2020-Aug-02 06:30N 48°46' W 122°54'0 0.0
2020-Aug-02 05:00N 48°46' W 122°54'0 0.0
2020-Aug-02 04:30N 48°46' W 122°54'0 0.1
2020-Aug-02 04:00N 48°46' W 122°54'0 0.0
2020-Aug-02 03:00N 48°46' W 122°54'0 0.0
2020-Aug-02 02:00N 48°46' W 122°54'0 0.0
2020-Aug-02 01:00N 48°46' W 122°54'5 2.0
2020-Aug-01 22:30N 48°43' W 122°47'11 1.7
2020-Aug-01 16:00N 48°43' W 122°31'0 0.0
2020-Aug-01 14:00N 48°43' W 122°31'0 0.0
2020-Aug-01 11:30N 48°43' W 122°31'0 0.0
2020-Aug-01 09:30N 48°43' W 122°31'0 0.0
2020-Aug-01 05:23N 48°43' W 122°31'1 0.6
2020-Aug-01 03:00N 48°45' W 122°31'1 1.2
2020-Aug-01 02:30N 48°44' W 122°31'1 0.5
2020-Aug-01 00:29N 48°43' W 122°31'0 0.0
2020-Aug-01 00:00N 48°43' W 122°31'0 0.0
2020-Jul-31 21:30N 48°43' W 122°31'0 0.0
2020-Jul-31 18:00N 48°43' W 122°31'0 0.0
2020-Jul-31 15:30N 48°43' W 122°31'0 0.0
2020-Jul-31 12:00N 48°43' W 122°31'0 0.0
2020-Jul-31 10:00N 48°43' W 122°31'0 0.0
2020-Jul-31 06:30N 48°43' W 122°31'0 0.0
2020-Jul-31 06:00N 48°43' W 122°31'0 0.0
2020-Jul-31 05:00N 48°43' W 122°31'0 0.0
2020-Jul-31 04:00N 48°43' W 122°31'0 0.0
2020-Jul-31 01:00N 48°43' W 122°31'0 0.0
2020-Jul-31 00:30N 48°43' W 122°31'0 0.0
2020-Jul-30 22:30N 48°43' W 122°31'0 0.0
2020-Jul-30 21:30N 48°43' W 122°31'0 0.0
2020-Jul-30 20:30N 48°43' W 122°31'0 0.0
2020-Jul-30 19:30N 48°43' W 122°31'0 0.0
2020-Jul-30 13:30N 48°43' W 122°31'0 0.0
2020-Jul-30 10:30N 48°43' W 122°31'0 0.0
2020-Jul-30 09:00N 48°43' W 122°31'0 0.0
2020-Jul-30 08:30N 48°43' W 122°31'0 0.0
2020-Jul-30 06:00N 48°43' W 122°31'0 0.0
2020-Jul-30 04:00N 48°43' W 122°31'0 0.0
2020-Jul-29 21:01N 48°43' W 122°31'0 0.0
2020-Jul-29 20:30N 48°43' W 122°31'0 0.0
2020-Jul-29 19:30N 48°43' W 122°31'0 0.0
2020-Jul-29 17:01N 48°43' W 122°31'0 0.0
2020-Jul-29 16:30N 48°43' W 122°31'0 0.0
2020-Jul-29 15:30N 48°43' W 122°31'0 0.0
2020-Jul-29 14:31N 48°43' W 122°31'0 0.0
2020-Jul-29 09:31N 48°43' W 122°31'0 0.0
2020-Jul-29 05:01N 48°43' W 122°31'0 0.0
2020-Jul-29 03:01N 48°43' W 122°31'0 0.0
2020-Jul-29 01:01N 48°43' W 122°31'0 0.0
2020-Jul-28 23:30N 48°43' W 122°31'0 0.0
2020-Jul-28 19:31N 48°43' W 122°31'0 0.0
2020-Jul-28 17:01N 48°43' W 122°31'0 0.0
2020-Jul-28 15:00N 48°43' W 122°31'0 0.0
2020-Jul-28 13:01N 48°43' W 122°31'0 0.0
2020-Jul-28 11:31N 48°43' W 122°31'0 0.0
2020-Jul-28 11:00N 48°43' W 122°31'0 0.0
2020-Jul-28 10:31N 48°43' W 122°31'  
Track history (hours):
 
Tides and Currents Weather Stations Pressure Air Temp Water Temp Dewpoint Dewpoint Depression Visibility Wind Speed Wind Dir Waves Ship Positions

Zodiac

Ship's website: http://www.schoonerzodiac.com/

Owner: VESSEL ZODIAC CORP, Bellingham, WA. More information available from US FCC via Universal Licensing System and Coast Guard Vessel Documentation Center.

Last reported at 2020-Aug-07 10:00 UTC. Time now 2020-Aug-07 10:13 UTC.
Position N 48°43' W 122°31'.

Length 34 m.

Type: Sailing vessel. MMSI: 366968070.

Date/timePositionNaut miles runAvg speedWind from/ knotsBaromVisibWave heightAir tempDewpointWater temp
2020-Aug-07 10:00N 48°43' W 122°31'0 0.0
2020-Aug-07 06:30N 48°43' W 122°31'0 0.0
2020-Aug-07 05:00N 48°43' W 122°31'0 0.0
2020-Aug-07 04:30N 48°43' W 122°31'0 0.0
2020-Aug-07 04:00N 48°43' W 122°31'0 0.0
2020-Aug-07 03:30N 48°43' W 122°31'0 0.0
2020-Aug-07 01:00N 48°43' W 122°31'0 0.0
2020-Aug-06 23:30N 48°43' W 122°31'0 0.0
2020-Aug-06 21:30N 48°43' W 122°31'0 0.0
2020-Aug-06 20:00N 48°43' W 122°31'0 0.0
2020-Aug-06 16:00N 48°43' W 122°31'0 0.0
2020-Aug-06 13:30N 48°43' W 122°31'0 0.0
2020-Aug-06 06:00N 48°43' W 122°31'0 0.0
2020-Aug-06 05:30N 48°43' W 122°31'0 0.0
2020-Aug-06 04:30N 48°43' W 122°31'0 0.0
2020-Aug-06 04:00N 48°43' W 122°31'0 0.0
2020-Aug-06 02:00N 48°43' W 122°31'0 0.0
2020-Aug-06 01:29N 48°43' W 122°31'0 0.0
2020-Aug-05 22:30N 48°43' W 122°31'0 0.0
2020-Aug-05 20:00N 48°43' W 122°31'0 0.0
2020-Aug-05 19:30N 48°43' W 122°31'0 0.0
2020-Aug-05 17:30N 48°43' W 122°31'0 0.0
2020-Aug-05 14:00N 48°43' W 122°31'0 0.0
2020-Aug-05 13:00N 48°43' W 122°31'0 0.0
2020-Aug-05 12:30N 48°43' W 122°31'0 0.0
2020-Aug-05 09:30N 48°43' W 122°31'0 0.0
2020-Aug-05 06:30N 48°43' W 122°31'0 0.0
2020-Aug-05 04:30N 48°43' W 122°31'0 0.0
2020-Aug-05 00:30N 48°43' W 122°31'0 0.0
2020-Aug-04 22:30N 48°43' W 122°31'0 0.0
2020-Aug-04 21:00N 48°43' W 122°31'0 0.0
2020-Aug-04 20:00N 48°43' W 122°31'0 0.0
2020-Aug-04 17:00N 48°43' W 122°31'0 0.0
2020-Aug-04 11:00N 48°43' W 122°31'0 0.0
2020-Aug-04 09:30N 48°43' W 122°31'0 0.0
2020-Aug-04 09:00N 48°43' W 122°31'0 0.0
2020-Aug-04 08:30N 48°43' W 122°31'0 0.0
2020-Aug-04 05:00N 48°43' W 122°31'0 0.0
2020-Aug-04 04:00N 48°43' W 122°31'0 0.0
2020-Aug-04 03:00N 48°43' W 122°31'0 0.0
2020-Aug-03 22:30N 48°43' W 122°31'12 2.5
2020-Aug-03 17:30N 48°36' W 122°45'4 4.2
2020-Aug-03 16:30N 48°33' W 122°50'1 0.8
2020-Aug-03 15:30N 48°32' W 122°51'0 0.0
2020-Aug-03 13:00N 48°33' W 122°51'0 0.0
2020-Aug-03 11:00N 48°33' W 122°51'0 0.0
2020-Aug-03 10:00N 48°33' W 122°51'0 0.0
2020-Aug-03 09:30N 48°33' W 122°51'0 0.0
2020-Aug-03 09:00N 48°33' W 122°51'0 0.0
2020-Aug-03 07:00N 48°33' W 122°51'0 0.0
2020-Aug-03 05:30N 48°33' W 122°51'0 0.0
2020-Aug-03 04:30N 48°33' W 122°51'0 0.0
2020-Aug-03 03:30N 48°33' W 122°51'0 0.0
2020-Aug-03 00:00N 48°33' W 122°51'8 1.3
2020-Aug-02 17:30N 48°36' W 123°03'9 8.8
2020-Aug-02 16:30N 48°44' W 122°56'3 0.8
2020-Aug-02 13:30N 48°46' W 122°54'0 0.0
2020-Aug-02 13:00N 48°46' W 122°54'0 0.1
2020-Aug-02 12:30N 48°46' W 122°54'0 0.0
2020-Aug-02 10:30N 48°46' W 122°54'0 0.1
2020-Aug-02 10:00N 48°46' W 122°54'0 0.0
2020-Aug-02 06:30N 48°46' W 122°54'0 0.0
2020-Aug-02 05:00N 48°46' W 122°54'0 0.0
2020-Aug-02 04:30N 48°46' W 122°54'0 0.1
2020-Aug-02 04:00N 48°46' W 122°54'0 0.0
2020-Aug-02 03:00N 48°46' W 122°54'0 0.0
2020-Aug-02 02:00N 48°46' W 122°54'0 0.0
2020-Aug-02 01:00N 48°46' W 122°54'5 2.0
2020-Aug-01 22:30N 48°43' W 122°47'11 1.7
2020-Aug-01 16:00N 48°43' W 122°31'0 0.0
2020-Aug-01 14:00N 48°43' W 122°31'0 0.0
2020-Aug-01 11:30N 48°43' W 122°31'0 0.0
2020-Aug-01 09:30N 48°43' W 122°31'0 0.0
2020-Aug-01 05:23N 48°43' W 122°31'1 0.6
2020-Aug-01 03:00N 48°45' W 122°31'1 1.2
2020-Aug-01 02:30N 48°44' W 122°31'1 0.5
2020-Aug-01 00:29N 48°43' W 122°31'0 0.0
2020-Aug-01 00:00N 48°43' W 122°31'0 0.0
2020-Jul-31 21:30N 48°43' W 122°31'0 0.0
2020-Jul-31 18:00N 48°43' W 122°31'0 0.0
2020-Jul-31 15:30N 48°43' W 122°31'0 0.0
2020-Jul-31 12:00N 48°43' W 122°31'0 0.0
2020-Jul-31 10:00N 48°43' W 122°31'0 0.0
2020-Jul-31 06:30N 48°43' W 122°31'0 0.0
2020-Jul-31 06:00N 48°43' W 122°31'0 0.0
2020-Jul-31 05:00N 48°43' W 122°31'0 0.0
2020-Jul-31 04:00N 48°43' W 122°31'0 0.0
2020-Jul-31 01:00N 48°43' W 122°31'0 0.0
2020-Jul-31 00:30N 48°43' W 122°31'0 0.0
2020-Jul-30 22:30N 48°43' W 122°31'0 0.0
2020-Jul-30 21:30N 48°43' W 122°31'0 0.0
2020-Jul-30 20:30N 48°43' W 122°31'0 0.0
2020-Jul-30 19:30N 48°43' W 122°31'0 0.0
2020-Jul-30 13:30N 48°43' W 122°31'0 0.0
2020-Jul-30 10:30N 48°43' W 122°31'0 0.0
2020-Jul-30 09:00N 48°43' W 122°31'0 0.0
2020-Jul-30 08:30N 48°43' W 122°31'0 0.0
2020-Jul-30 06:00N 48°43' W 122°31'0 0.0
2020-Jul-30 04:00N 48°43' W 122°31'0 0.0
2020-Jul-29 21:01N 48°43' W 122°31'0 0.0
2020-Jul-29 20:30N 48°43' W 122°31'0 0.0
2020-Jul-29 19:30N 48°43' W 122°31'0 0.0
2020-Jul-29 17:01N 48°43' W 122°31'0 0.0
2020-Jul-29 16:30N 48°43' W 122°31'0 0.0
2020-Jul-29 15:30N 48°43' W 122°31'0 0.0
2020-Jul-29 14:31N 48°43' W 122°31'0 0.0
2020-Jul-29 09:31N 48°43' W 122°31'0 0.0
2020-Jul-29 05:01N 48°43' W 122°31'0 0.0
2020-Jul-29 03:01N 48°43' W 122°31'0 0.0
2020-Jul-29 01:01N 48°43' W 122°31'0 0.0
2020-Jul-28 23:30N 48°43' W 122°31'0 0.0
2020-Jul-28 19:31N 48°43' W 122°31'0 0.0
2020-Jul-28 17:01N 48°43' W 122°31'0 0.0
2020-Jul-28 15:00N 48°43' W 122°31'0 0.0
2020-Jul-28 13:01N 48°43' W 122°31'0 0.0
2020-Jul-28 11:31N 48°43' W 122°31'0 0.0
2020-Jul-28 11:00N 48°43' W 122°31'0 0.0
2020-Jul-28 10:31N 48°43' W 122°31'  

Dump ship's entire track history